Time;durP1;ratioP1;P1;durP2;ratioP2;P2;SDS_P1;SDS_P2;PMS_P1;PMS_P2;Temp;Humidity;BMP_temperature;BMP_pressure;BME280_temperature;BME280_humidity;BME280_pressure;Samples;Min_cycle;Max_cycle;Signal;HPM_P1;HPM_P2
2022/03/14 00:00:07;;;;;;;;;9.00;8.50;;;;;10.35;65.20;101749.03;2443001;28;48275;-92
2022/03/14 00:01:17;;;;;;;;;6.00;5.00;;;;;10.37;65.25;101756.91;2443774;28;45181;-91
2022/03/14 00:02:28;;;;;;;;;7.00;7.00;;;;;10.35;65.04;101767.44;2450199;28;48342;-92
2022/03/14 00:03:45;;;;;;;;;8.50;6.25;;;;;10.38;65.52;101765.66;2442898;28;45210;-92
2022/03/14 00:04:55;;;;;;;;;7.75;6.00;;;;;10.39;65.28;101772.66;2449897;28;46303;-88
2022/03/14 00:06:07;;;;;;;;;6.75;6.25;;;;;10.37;65.23;101772.66;2450750;28;45226;-88
2022/03/14 00:07:18;;;;;;;;;8.75;8.00;;;;;10.39;65.32;101770.91;2449899;28;47484;-88
2022/03/14 00:08:31;;;;;;;;;5.75;5.25;;;;;10.40;65.15;101777.88;2450331;28;44681;-88
2022/03/14 00:09:41;;;;;;;;;8.00;7.00;;;;;10.43;64.65;101784.84;2450596;27;45446;-88
2022/03/14 00:10:53;;;;;;;;;9.75;8.00;;;;;10.43;65.25;101784.84;2456363;27;44609;-88
2022/03/14 00:12:07;;;;;;;;;8.00;6.50;;;;;10.45;65.39;101783.06;2450841;27;46290;-88
2022/03/14 00:13:18;;;;;;;;;8.75;7.75;;;;;10.44;65.27;101786.59;2449796;28;45259;-88
2022/03/14 00:14:29;;;;;;;;;8.00;7.50;;;;;10.46;65.54;101788.31;2449809;28;45334;-88
2022/03/14 00:15:40;;;;;;;;;7.50;6.75;;;;;10.48;65.06;101788.28;2450359;27;44674;-90
2022/03/14 00:16:56;;;;;;;;;9.75;8.00;;;;;10.51;64.98;101798.78;2441774;28;46676;-88
2022/03/14 00:18:10;;;;;;;;;7.00;6.25;;;;;10.49;65.05;101784.78;2450071;28;45228;-89
2022/03/14 00:19:20;;;;;;;;;6.75;5.50;;;;;10.52;64.89;101794.41;2449241;28;46312;-88
2022/03/14 00:20:31;;;;;;;;;7.00;7.00;;;;;10.52;64.74;101797.88;2449731;28;45366;-88
2022/03/14 00:21:41;;;;;;;;;6.75;6.50;;;;;10.52;64.66;101808.41;2449962;28;45328;-88
2022/03/14 00:22:52;;;;;;;;;13.25;8.25;;;;;10.55;64.81;101805.72;2450753;27;45215;-88
2022/03/14 00:24:03;;;;;;;;;9.50;8.50;;;;;10.55;64.97;101810.09;2450421;28;45389;-88
2022/03/14 00:25:13;;;;;;;;;6.00;5.00;;;;;10.56;64.80;101807.47;2450393;28;45398;-89
2022/03/14 00:26:26;;;;;;;;;8.75;6.75;;;;;10.58;64.88;101813.56;2450645;27;45359;-88
2022/03/14 00:27:37;;;;;;;;;8.00;8.00;;;;;10.60;64.79;101813.53;2449598;28;44658;-88
2022/03/14 00:28:51;;;;;;;;;8.00;6.25;;;;;10.60;64.93;101823.19;2449747;28;45375;-87
2022/03/14 00:30:10;;;;;;;;;8.50;6.75;;;;;10.58;64.73;101816.19;2450669;27;45468;-88
2022/03/14 00:31:21;;;;;;;;;7.75;7.75;;;;;10.59;64.68;101811.81;2450523;27;45441;-88
2022/03/14 00:32:32;;;;;;;;;8.00;7.50;;;;;10.61;64.55;101820.53;2450755;28;45329;-87
2022/03/14 00:33:42;;;;;;;;;7.50;6.50;;;;;10.63;64.77;101833.66;2449688;28;47317;-89
2022/03/14 00:34:53;;;;;;;;;7.75;6.50;;;;;10.62;64.44;101827.53;2449894;28;45145;-90
2022/03/14 00:36:04;;;;;;;;;7.50;6.25;;;;;10.60;64.31;101833.69;2450535;28;45268;-91
2022/03/14 00:37:15;;;;;;;;;8.50;6.75;;;;;10.62;64.48;101839.81;2450350;28;45220;-90
2022/03/14 00:38:25;;;;;;;;;7.50;6.00;;;;;10.60;64.43;101831.94;2451490;28;46148;-90
2022/03/14 00:39:36;;;;;;;;;7.75;6.00;;;;;10.62;64.19;101839.81;2452431;27;45177;-91
2022/03/14 00:40:46;;;;;;;;;5.75;5.00;;;;;10.62;65.13;101840.66;2451350;28;47032;-90
2022/03/14 00:41:57;;;;;;;;;8.00;6.75;;;;;10.62;64.70;101842.44;2444584;28;44638;-90
2022/03/14 00:43:08;;;;;;;;;8.00;6.00;;;;;10.62;64.51;101842.44;2451679;28;46260;-90
2022/03/14 00:44:18;;;;;;;;;9.25;8.00;;;;;10.63;64.60;101854.69;2452337;28;44585;-91
2022/03/14 00:45:31;;;;;;;;;6.00;4.75;;;;;10.64;64.47;101845.94;2452219;27;46374;-90
2022/03/14 00:46:43;;;;;;;;;6.25;4.75;;;;;10.64;64.70;101851.19;2451537;28;45394;-90
2022/03/14 00:47:53;;;;;;;;;6.25;5.25;;;;;10.62;64.52;101847.72;2451557;28;45431;-89
2022/03/14 00:49:03;;;;;;;;;7.00;7.00;;;;;10.63;64.53;101854.69;2452407;27;45309;-89
2022/03/14 00:50:14;;;;;;;;;6.75;6.00;;;;;10.63;64.54;101859.94;2451672;27;45427;-89
2022/03/14 00:51:24;;;;;;;;;8.00;6.75;;;;;10.64;65.24;101856.44;2452255;28;45452;-89
2022/03/14 00:52:35;;;;;;;;;8.25;6.75;;;;;10.64;64.13;101857.28;2452052;28;45442;-89
2022/03/14 00:53:45;;;;;;;;;7.25;6.25;;;;;10.66;64.31;101862.53;2452324;27;45248;-90
2022/03/14 00:54:55;;;;;;;;;8.75;5.50;;;;;10.66;64.67;101862.53;2451256;28;48216;-90
2022/03/14 00:56:06;;;;;;;;;6.25;6.25;;;;;10.65;64.52;101864.28;2451297;28;45188;-89
2022/03/14 00:57:17;;;;;;;;;7.25;6.00;;;;;10.65;64.40;101866.03;2451763;27;46716;-86
2022/03/14 00:58:29;;;;;;;;;7.50;5.00;;;;;10.67;64.20;101872.16;2451277;28;45248;-87
2022/03/14 00:59:39;;;;;;;;;8.75;6.25;;;;;10.67;64.38;101878.28;2444221;28;47252;-87
2022/03/14 01:00:50;;;;;;;;;6.25;5.00;;;;;10.65;64.38;101876.56;2451255;28;44717;-87
2022/03/14 01:02:00;;;;;;;;;6.25;5.00;;;;;10.65;64.28;101876.56;2451381;28;46143;-87
2022/03/14 01:03:11;;;;;;;;;8.75;6.25;;;;;10.66;64.50;101883.56;2452185;28;45228;-87
2022/03/14 01:04:22;;;;;;;;;10.00;7.00;;;;;10.65;64.45;101873.94;2451498;28;46357;-88
2022/03/14 01:05:32;;;;;;;;;5.00;5.00;;;;;10.66;64.42;101886.19;2451788;27;45370;-87
2022/03/14 01:06:43;;;;;;;;;5.25;4.25;;;;;10.66;64.03;101891.47;2451686;27;45526;-87
2022/03/14 01:07:54;;;;;;;;;7.75;6.00;;;;;10.66;64.38;101887.06;2456478;27;45342;-88
2022/03/14 01:09:04;;;;;;;;;8.50;5.50;;;;;10.63;64.10;101894.13;2454177;27;45553;-87
2022/03/14 01:10:15;;;;;;;;;5.00;4.25;;;;;10.64;64.22;101893.25;2451153;28;45268;-87
2022/03/14 01:11:25;;;;;;;;;8.75;6.00;;;;;10.63;64.35;101894.13;2451450;28;45196;-89
2022/03/14 01:12:36;;;;;;;;;6.00;5.75;;;;;10.62;64.34;101900.28;2441674;28;45193;-90
2022/03/14 01:13:46;;;;;;;;;8.00;6.00;;;;;10.60;64.08;101891.53;2449913;28;45334;-89
2022/03/14 01:14:57;;;;;;;;;5.25;5.00;;;;;10.60;64.19;101902.06;2452033;28;45273;-89
2022/03/14 01:16:07;;;;;;;;;7.25;6.50;;;;;10.61;64.36;101899.41;2451714;28;45324;-89
2022/03/14 01:17:18;;;;;;;;;5.00;5.00;;;;;10.61;64.26;101898.53;2451156;28;45243;-90
2022/03/14 01:18:28;;;;;;;;;8.75;6.50;;;;;10.61;64.18;101895.91;2451350;28;45429;-90
2022/03/14 01:19:38;;;;;;;;;4.75;4.75;;;;;10.58;64.09;101895.06;2450685;28;45228;-90
2022/03/14 01:20:49;;;;;;;;;6.25;5.75;;;;;10.56;64.11;101901.25;2451407;28;46239;-89
2022/03/14 01:21:59;;;;;;;;;7.75;5.75;;;;;10.54;64.03;101903.88;2451985;27;45250;-88
2022/03/14 01:23:10;;;;;;;;;8.25;5.25;;;;;10.55;64.17;101908.25;2451792;27;45388;-90
2022/03/14 01:24:20;;;;;;;;;8.00;5.50;;;;;10.52;64.07;101907.44;2451252;28;45428;-89
2022/03/14 01:25:30;;;;;;;;;7.50;6.25;;;;;10.50;64.20;101906.53;2450483;28;46262;-88
2022/03/14 01:26:41;;;;;;;;;7.75;6.50;;;;;10.51;63.92;101914.44;2451005;28;45340;-89
2022/03/14 01:27:52;;;;;;;;;6.25;6.00;;;;;10.50;64.22;101914.44;2450694;28;47174;-89
2022/03/14 01:29:05;;;;;;;;;5.25;5.25;;;;;10.47;64.25;101917.97;2444294;28;44739;-89
2022/03/14 01:30:15;;;;;;;;;11.75;6.50;;;;;10.47;64.04;101917.97;2443835;28;47346;-88
2022/03/14 01:31:26;;;;;;;;;3.00;3.00;;;;;10.45;64.07;101909.22;2443772;28;45347;-89
2022/03/14 01:32:36;;;;;;;;;7.25;5.75;;;;;10.46;64.37;101918.88;2451383;28;46429;-90
2022/03/14 01:33:47;;;;;;;;;6.75;6.00;;;;;10.43;64.33;101917.16;2451933;27;45423;-90
2022/03/14 01:34:57;;;;;;;;;6.75;5.75;;;;;10.44;64.15;101915.41;2451509;28;46284;-90
2022/03/14 01:36:08;;;;;;;;;4.75;4.50;;;;;10.44;64.38;101923.28;2451918;27;45329;-91
2022/03/14 01:37:19;;;;;;;;;5.00;5.00;;;;;10.44;64.46;101921.53;2451767;27;45573;-91
2022/03/14 01:38:29;;;;;;;;;5.50;5.50;;;;;10.42;64.10;101919.81;2451914;28;45242;-90
2022/03/14 01:39:40;;;;;;;;;5.50;5.00;;;;;10.43;64.45;101927.66;2451919;27;45347;-89
2022/03/14 01:40:51;;;;;;;;;8.00;6.00;;;;;10.40;64.30;101929.44;2451097;28;44678;-88
2022/03/14 01:42:02;;;;;;;;;6.25;6.00;;;;;10.40;64.14;101926.81;2451385;28;45382;-89
2022/03/14 01:43:12;;;;;;;;;9.25;6.75;;;;;10.38;64.91;101920.72;2450945;28;45527;-89
2022/03/14 01:44:23;;;;;;;;;4.25;3.50;;;;;10.39;64.38;101930.34;2443614;28;46102;-90
2022/03/14 01:45:34;;;;;;;;;9.00;5.00;;;;;10.37;64.17;101924.25;2451392;28;45409;-89
2022/03/14 01:46:45;;;;;;;;;8.00;7.00;;;;;10.37;64.39;101927.72;2451623;28;45390;-91
2022/03/14 01:47:55;;;;;;;;;5.75;5.50;;;;;10.38;63.83;101931.22;2451352;28;44544;-91
2022/03/14 01:49:06;;;;;;;;;5.50;5.25;;;;;10.35;64.60;101935.63;2450924;28;46075;-92
2022/03/14 01:50:18;;;;;;;;;4.00;4.00;;;;;10.35;64.27;101940.91;2451191;28;45286;-94
2022/03/14 01:51:29;;;;;;;;;4.75;4.75;;;;;10.32;64.05;101938.31;2444354;28;47422;-94
2022/03/14 01:52:40;;;;;;;;;5.00;5.00;;;;;10.32;64.14;101940.94;2444123;28;45450;-92
2022/03/14 01:53:52;;;;;;;;;6.75;4.25;;;;;10.30;64.00;101940.09;2444108;28;48459;-92
2022/03/14 01:55:04;;;;;;;;;6.75;5.25;;;;;10.29;63.84;101950.63;2450748;28;45315;-91
2022/03/14 01:56:15;;;;;;;;;5.75;5.00;;;;;10.25;64.15;101947.16;2444132;28;47525;-91
2022/03/14 01:57:27;;;;;;;;;5.50;5.00;;;;;10.25;64.02;101949.78;2444032;28;45323;-90
2022/03/14 01:58:37;;;;;;;;;6.75;6.75;;;;;10.22;64.28;101955.94;2451235;28;45398;-91
2022/03/14 01:59:48;;;;;;;;;5.50;5.00;;;;;10.21;64.37;101951.59;2450992;28;45228;-91
2022/03/14 02:00:59;;;;;;;;;4.75;4.50;;;;;10.18;63.95;101956.00;2450882;28;47389;-91
2022/03/14 02:02:09;;;;;;;;;9.00;6.75;;;;;10.15;63.96;101956.91;2443919;28;45490;-91
2022/03/14 02:03:20;;;;;;;;;7.50;4.50;;;;;10.12;63.98;101952.53;2443484;28;45930;-92
2022/03/14 02:04:30;;;;;;;;;4.50;3.00;;;;;10.10;64.12;101946.44;2450827;28;44759;-91
2022/03/14 02:05:41;;;;;;;;;4.00;3.00;;;;;10.08;64.50;101956.09;2450655;28;47011;-90
2022/03/14 02:06:53;;;;;;;;;3.25;3.00;;;;;10.07;63.90;101959.63;2443809;28;45257;-91
2022/03/14 02:08:07;;;;;;;;;5.00;3.75;;;;;10.04;64.02;101954.41;2450865;28;47091;-93
2022/03/14 02:09:17;;;;;;;;;5.00;4.50;;;;;10.04;63.61;101948.28;2444266;28;45255;-91
2022/03/14 02:10:27;;;;;;;;;5.50;5.50;;;;;10.01;63.71;101950.06;2444007;28;46950;-92
2022/03/14 02:11:38;;;;;;;;;4.50;4.50;;;;;9.99;64.26;101953.59;2451256;28;45237;-92
2022/03/14 02:12:48;;;;;;;;;4.50;4.00;;;;;9.98;64.24;101952.72;2451079;28;48004;-92
2022/03/14 02:13:58;;;;;;;;;6.00;5.00;;;;;9.94;64.30;101945.75;2443909;28;45169;-92
2022/03/14 02:15:09;;;;;;;;;5.50;4.00;;;;;9.94;63.98;101944.88;2443789;28;46970;-92
2022/03/14 02:16:20;;;;;;;;;9.50;6.50;;;;;9.92;64.15;101944.03;2450919;27;44644;-92
2022/03/14 02:17:30;;;;;;;;;9.50;5.75;;;;;9.88;64.31;101946.69;2450829;28;46837;-92
2022/03/14 02:18:40;;;;;;;;;5.00;4.50;;;;;9.85;63.98;101943.25;2444003;28;45443;-90
2022/03/14 02:19:52;;;;;;;;;4.00;4.00;;;;;9.82;64.52;101945.88;2450544;28;45643;-90
2022/03/14 02:21:03;;;;;;;;;5.00;4.00;;;;;9.81;64.47;101952.88;2450984;28;45363;-90
2022/03/14 02:22:14;;;;;;;;;5.50;4.50;;;;;9.76;64.08;101946.81;2446047;27;46739;-90
2022/03/14 02:23:24;;;;;;;;;5.75;3.75;;;;;9.74;64.16;101944.22;2453743;27;44669;-88
2022/03/14 02:24:35;;;;;;;;;4.50;2.75;;;;;9.72;64.36;101947.75;2451266;27;45247;-87
2022/03/14 02:25:53;;;;;;;;;7.25;6.00;;;;;9.72;64.25;101956.50;2451399;28;45290;-88
2022/03/14 02:27:04;;;;;;;;;6.00;4.00;;;;;9.67;64.45;101947.78;2450451;28;47321;-88
2022/03/14 02:28:15;;;;;;;;;4.75;4.00;;;;;9.68;64.39;101960.00;2443754;28;44709;-88
2022/03/14 02:29:25;;;;;;;;;5.50;4.25;;;;;9.65;64.45;101957.44;2450667;28;46541;-88
2022/03/14 02:30:35;;;;;;;;;6.50;5.00;;;;;9.63;64.42;101956.59;2450375;28;45156;-87
2022/03/14 02:31:46;;;;;;;;;5.00;5.00;;;;;9.62;64.28;101967.94;2451440;27;45276;-88
2022/03/14 02:32:58;;;;;;;;;6.00;4.00;;;;;9.58;64.54;101959.22;2450603;28;44640;-89
2022/03/14 02:34:08;;;;;;;;;5.75;4.25;;;;;9.56;64.24;101961.88;2450227;28;46469;-88
2022/03/14 02:35:18;;;;;;;;;5.75;5.00;;;;;9.57;64.46;101962.75;2450993;28;44712;-89
2022/03/14 02:36:29;;;;;;;;;7.50;4.75;;;;;9.53;64.59;101959.25;2451208;28;45155;-88
2022/03/14 02:37:40;;;;;;;;;3.50;3.50;;;;;9.51;64.63;101957.53;2451146;27;44809;-88
2022/03/14 02:38:50;;;;;;;;;3.25;3.00;;;;;9.51;64.57;101966.28;2450079;28;46034;-89
2022/03/14 02:40:01;;;;;;;;;5.25;5.25;;;;;9.51;64.33;101968.91;2443629;28;45360;-88
2022/03/14 02:41:11;;;;;;;;;9.50;5.00;;;;;9.48;64.76;101968.09;2450317;28;47089;-88
2022/03/14 02:42:22;;;;;;;;;6.00;5.25;;;;;9.47;64.99;101969.84;2450786;28;44724;-89
2022/03/14 02:43:35;;;;;;;;;5.75;4.25;;;;;9.44;64.70;101965.47;2451122;28;45400;-88
2022/03/14 02:44:45;;;;;;;;;4.50;4.00;;;;;9.44;64.68;101967.22;2450097;28;45213;-88
2022/03/14 02:45:55;;;;;;;;;4.50;3.00;;;;;9.43;64.98;101976.00;2443240;28;46925;-89
2022/03/14 02:47:06;;;;;;;;;6.00;4.00;;;;;9.42;64.55;101977.75;2443497;28;44780;-89
2022/03/14 02:48:18;;;;;;;;;5.00;5.00;;;;;9.40;64.99;101978.63;2450666;28;46524;-88
2022/03/14 02:49:28;;;;;;;;;4.25;4.00;;;;;9.37;65.08;101971.66;2451094;27;45215;-88
2022/03/14 02:50:42;;;;;;;;;4.50;4.00;;;;;9.37;65.08;101986.53;2450950;27;45324;-88
2022/03/14 02:51:52;;;;;;;;;5.25;5.00;;;;;9.34;64.82;101990.03;2450364;28;45302;-87
2022/03/14 02:53:03;;;;;;;;;5.00;3.50;;;;;9.34;65.07;101996.16;2450225;28;45368;-88
2022/03/14 02:54:13;;;;;;;;;7.50;5.00;;;;;9.34;64.96;101992.66;2450227;28;44798;-88
2022/03/14 02:55:24;;;;;;;;;6.50;4.00;;;;;9.31;65.08;101996.19;2443136;28;47451;-86
2022/03/14 02:56:36;;;;;;;;;4.00;4.00;;;;;9.30;64.64;102002.34;2450863;28;44607;-84
2022/03/14 02:57:47;;;;;;;;;3.00;3.00;;;;;9.30;65.22;101997.09;2451091;27;45309;-84
2022/03/14 02:58:57;;;;;;;;;7.25;4.00;;;;;9.30;65.39;101998.84;2451267;28;45194;-84
2022/03/14 03:00:10;;;;;;;;;4.00;2.25;;;;;9.30;64.92;102007.56;2451000;27;45352;-85
2022/03/14 03:01:23;;;;;;;;;5.00;3.75;;;;;9.27;65.06;102012.84;2450458;27;45353;-86
2022/03/14 03:02:35;;;;;;;;;4.50;4.50;;;;;9.27;65.00;102012.84;2450983;27;46451;-85
2022/03/14 03:03:45;;;;;;;;;8.25;4.50;;;;;9.28;65.33;102016.34;2451210;28;44629;-86
2022/03/14 03:04:55;;;;;;;;;5.75;3.75;;;;;9.27;65.33;102014.59;2449518;28;48341;-86
2022/03/14 03:06:07;;;;;;;;;4.00;3.00;;;;;9.27;65.10;102019.84;2450543;28;45295;-85
2022/03/14 03:07:19;;;;;;;;;6.00;5.00;;;;;9.27;65.33;102019.84;2449907;28;47292;-84
2022/03/14 03:08:29;;;;;;;;;4.75;4.25;;;;;9.28;65.45;102024.22;2450682;28;45200;-84
2022/03/14 03:09:39;;;;;;;;;4.25;3.00;;;;;9.27;65.52;102033.81;2450103;28;47079;-90
2022/03/14 03:10:50;;;;;;;;;7.25;5.00;;;;;9.25;65.43;102034.72;2450272;28;45456;-90
2022/03/14 03:12:01;;;;;;;;;5.75;4.50;;;;;9.26;65.05;102033.84;2450501;28;45386;-90
2022/03/14 03:13:11;;;;;;;;;6.75;4.50;;;;;9.25;65.33;102034.72;2450083;28;45520;-88
2022/03/14 03:14:22;;;;;;;;;5.25;3.50;;;;;9.23;65.46;102040.84;2450510;28;45367;-88
2022/03/14 03:15:37;;;;;;;;;8.25;5.50;;;;;9.22;65.26;102044.34;2451008;27;45337;-86
2022/03/14 03:16:47;;;;;;;;;5.00;5.00;;;;;9.22;65.50;102044.34;2450754;28;46464;-87
2022/03/14 03:17:59;;;;;;;;;12.00;5.00;;;;;9.23;65.75;102048.72;2450316;28;45223;-83
2022/03/14 03:19:09;;;;;;;;;11.75;5.00;;;;;9.23;65.34;102048.72;2450222;28;46352;-80
2022/03/14 03:20:20;;;;;;;;;5.00;3.00;;;;;9.26;65.34;102052.22;2450917;28;44683;-80
2022/03/14 03:21:34;;;;;;;;;6.00;5.00;;;;;9.23;65.91;102051.31;2451041;28;45553;-86
2022/03/14 03:22:44;;;;;;;;;8.00;6.00;;;;;9.23;65.69;102055.72;2450901;27;44728;-85
2022/03/14 03:23:55;;;;;;;;;6.00;5.00;;;;;9.27;65.39;102067.06;2450900;27;45360;-85
2022/03/14 03:25:06;;;;;;;;;8.00;7.00;;;;;9.26;65.45;102057.47;2451079;27;45219;-85
2022/03/14 03:26:16;;;;;;;;;5.25;5.25;;;;;9.23;65.16;102060.97;2451018;27;45253;-85
2022/03/14 03:27:27;;;;;;;;;6.25;4.00;;;;;9.23;65.67;102066.22;2451059;27;45246;-85
2022/03/14 03:28:37;;;;;;;;;5.75;5.75;;;;;9.24;65.90;102062.69;2450898;28;45375;-85
2022/03/14 03:29:48;;;;;;;;;6.00;5.00;;;;;9.22;65.50;102065.34;2451056;27;45225;-85
2022/03/14 03:30:58;;;;;;;;;8.75;5.00;;;;;9.22;65.86;102057.47;2449880;28;46189;-87
2022/03/14 03:32:09;;;;;;;;;3.50;3.50;;;;;9.24;65.25;102067.94;2450259;28;45405;-88
2022/03/14 03:33:19;;;;;;;;;4.75;3.50;;;;;9.22;65.04;102067.97;2450989;27;45467;-87
2022/03/14 03:34:30;;;;;;;;;3.50;3.50;;;;;9.21;65.54;102070.63;2449772;27;45851;-87
2022/03/14 03:35:40;;;;;;;;;6.50;4.75;;;;;9.20;64.91;102084.59;2450643;27;45432;-87
2022/03/14 03:36:51;;;;;;;;;4.00;4.00;;;;;9.21;65.39;102092.44;2450718;27;45258;-87
2022/03/14 03:38:01;;;;;;;;;9.25;4.75;;;;;9.18;65.28;102095.09;2450717;28;46168;-87
2022/03/14 03:39:12;;;;;;;;;4.50;4.50;;;;;9.19;65.14;102095.94;2450092;28;44721;-87
2022/03/14 03:40:22;;;;;;;;;5.00;5.00;;;;;9.17;65.45;102095.09;2450287;28;45355;-86
2022/03/14 03:41:32;;;;;;;;;5.00;4.00;;;;;9.17;65.20;102098.59;2450590;28;45286;-87
2022/03/14 03:42:43;;;;;;;;;6.00;3.50;;;;;9.17;65.36;102097.72;2450805;27;46003;-87
2022/03/14 03:43:53;;;;;;;;;7.50;4.00;;;;;9.17;65.26;102106.47;2450882;27;45344;-86
2022/03/14 03:45:05;;;;;;;;;5.75;4.00;;;;;9.17;65.08;102097.72;2450751;27;45271;-87
2022/03/14 03:46:16;;;;;;;;;8.00;5.00;;;;;9.12;64.76;102095.13;2450903;27;45314;-87
2022/03/14 03:47:26;;;;;;;;;5.00;4.25;;;;;9.14;65.00;102100.34;2451010;27;46282;-87
2022/03/14 03:48:36;;;;;;;;;6.25;6.25;;;;;9.11;65.02;102102.13;2450852;27;45172;-87
2022/03/14 03:49:47;;;;;;;;;5.75;5.75;;;;;9.13;64.94;102117.00;2450171;28;45228;-85
2022/03/14 03:50:57;;;;;;;;;4.25;4.25;;;;;9.09;65.00;102106.50;2450900;27;45182;-86
2022/03/14 03:52:08;;;;;;;;;8.25;6.00;;;;;9.09;64.84;102118.72;2450653;27;45380;-86
2022/03/14 03:53:18;;;;;;;;;3.00;3.00;;;;;9.07;64.78;102115.25;2450610;27;44612;-86
2022/03/14 03:54:28;;;;;;;;;5.00;3.25;;;;;9.07;65.47;102117.88;2450812;28;45203;-87
2022/03/14 03:55:39;;;;;;;;;4.00;3.00;;;;;9.04;65.29;102117.91;2450717;28;45314;-86
2022/03/14 03:56:49;;;;;;;;;2.25;2.25;;;;;9.04;65.23;102120.53;2449891;28;47062;-86
2022/03/14 03:58:00;;;;;;;;;5.50;3.50;;;;;9.03;65.10;102124.91;2450054;28;44704;-85
2022/03/14 03:59:11;;;;;;;;;4.25;4.00;;;;;9.00;65.28;102120.53;2450765;28;46378;-86
2022/03/14 04:00:22;;;;;;;;;8.25;4.25;;;;;8.99;64.87;102123.16;2450745;28;45365;-85
2022/03/14 04:01:32;;;;;;;;;2.25;2.25;;;;;8.98;64.96;102126.66;2450304;28;46145;-84
2022/03/14 04:02:44;;;;;;;;;6.50;5.00;;;;;8.96;64.75;102124.03;2450617;27;45464;-84
2022/03/14 04:03:55;;;;;;;;;4.00;4.00;;;;;8.95;65.05;102131.91;2450614;27;45366;-86
2022/03/14 04:05:06;;;;;;;;;5.25;4.00;;;;;8.96;65.12;102138.91;2450429;28;45245;-87
2022/03/14 04:06:22;;;;;;;;;5.25;4.00;;;;;8.92;65.08;102138.03;2450378;28;45474;-87
2022/03/14 04:07:34;;;;;;;;;5.00;4.00;;;;;8.90;65.33;102145.03;2450864;28;44764;-84
2022/03/14 04:08:46;;;;;;;;;5.50;5.00;;;;;8.88;65.25;102150.31;2450699;27;46096;-84
2022/03/14 04:09:57;;;;;;;;;7.00;6.00;;;;;8.89;65.12;102148.53;2450977;27;45231;-84
2022/03/14 04:11:07;;;;;;;;;6.50;4.00;;;;;8.87;65.02;102148.56;2458429;27;45168;-87
2022/03/14 04:12:18;;;;;;;;;8.00;6.25;;;;;8.86;65.09;102153.81;2453184;27;45237;-88
2022/03/14 04:13:29;;;;;;;;;8.50;5.00;;;;;8.82;65.25;102142.44;2452064;28;46493;-87
2022/03/14 04:14:40;;;;;;;;;6.25;6.00;;;;;8.81;64.63;102148.59;2451716;28;45257;-87
2022/03/14 04:15:51;;;;;;;;;4.50;4.50;;;;;8.81;64.92;102148.59;2451657;28;46310;-87
2022/03/14 04:17:04;;;;;;;;;11.00;6.00;;;;;8.80;65.12;102153.81;2452427;28;45218;-84
2022/03/14 04:18:18;;;;;;;;;9.50;5.00;;;;;8.78;64.99;102152.09;2452267;27;45382;-84
2022/03/14 04:19:34;;;;;;;;;7.75;6.00;;;;;8.78;64.99;102154.69;2452229;27;45168;-89
2022/03/14 04:20:49;;;;;;;;;5.00;5.00;;;;;8.77;65.31;102158.19;2452362;28;45433;-88
2022/03/14 04:21:59;;;;;;;;;7.00;7.00;;;;;8.76;65.12;102156.47;2451582;28;44763;-91
2022/03/14 04:23:09;;;;;;;;;5.50;4.00;;;;;8.74;65.42;102160.81;2451834;28;45255;-90
2022/03/14 04:24:20;;;;;;;;;6.00;4.00;;;;;8.73;65.16;102163.44;2459461;27;45398;-91
2022/03/14 04:25:30;;;;;;;;;7.50;3.75;;;;;8.71;65.01;102165.19;2444689;28;46856;-91
2022/03/14 04:26:41;;;;;;;;;7.75;4.50;;;;;8.70;65.44;102164.31;2451786;28;45370;-91
2022/03/14 04:27:51;;;;;;;;;7.00;5.00;;;;;8.69;65.46;102164.34;2451995;28;45419;-91
2022/03/14 04:29:02;;;;;;;;;8.50;6.00;;;;;8.66;65.26;102165.22;2451515;28;45292;-92
2022/03/14 04:30:13;;;;;;;;;5.00;4.00;;;;;8.68;65.61;102170.44;2444822;28;47088;-91
2022/03/14 04:31:24;;;;;;;;;6.75;5.75;;;;;8.66;65.63;102176.56;2452038;28;45421;-92
2022/03/14 04:32:34;;;;;;;;;5.00;5.00;;;;;8.65;65.25;102176.56;2452459;28;46219;-91
2022/03/14 04:33:45;;;;;;;;;5.00;3.50;;;;;8.66;65.34;102180.94;2452240;28;44539;-90
2022/03/14 04:34:55;;;;;;;;;7.50;5.50;;;;;8.64;65.37;102175.69;2451793;28;46296;-86
2022/03/14 04:36:06;;;;;;;;;4.25;4.25;;;;;8.63;65.48;102173.94;2451831;27;44675;-86
2022/03/14 04:37:16;;;;;;;;;6.00;6.00;;;;;8.62;65.51;102184.41;2451422;28;46912;-86
2022/03/14 04:38:27;;;;;;;;;4.00;3.75;;;;;8.61;65.27;102182.69;2451865;28;45514;-85
2022/03/14 04:39:38;;;;;;;;;5.75;5.25;;;;;8.62;65.51;102194.91;2451362;28;47023;-85
2022/03/14 04:40:49;;;;;;;;;6.50;5.00;;;;;8.62;65.47;102192.28;2444443;28;45182;-85
2022/03/14 04:41:59;;;;;;;;;8.50;5.75;;;;;8.62;65.67;102193.16;2451677;28;45362;-85
2022/03/14 04:43:10;;;;;;;;;9.50;6.00;;;;;8.60;65.77;102186.19;2451360;28;46824;-86
2022/03/14 04:44:21;;;;;;;;;7.25;6.00;;;;;8.61;65.70;102194.06;2452181;28;46527;-86
2022/03/14 04:45:32;;;;;;;;;7.00;5.25;;;;;8.60;65.65;102191.41;2452247;27;45423;-86
2022/03/14 04:46:42;;;;;;;;;6.75;6.00;;;;;8.59;65.43;102192.31;2452093;27;45470;-86
2022/03/14 04:47:53;;;;;;;;;8.75;5.75;;;;;8.61;65.86;102195.78;2452088;28;45235;-86
2022/03/14 04:49:04;;;;;;;;;9.25;6.50;;;;;8.61;65.40;102196.69;2451062;28;48252;-85
2022/03/14 04:50:16;;;;;;;;;5.75;5.00;;;;;8.61;65.58;102201.91;2451547;28;44674;-86
2022/03/14 04:51:27;;;;;;;;;7.25;4.00;;;;;8.61;65.66;102203.66;2451228;28;47112;-84
2022/03/14 04:52:37;;;;;;;;;6.75;6.75;;;;;8.61;65.88;102208.91;2444499;28;45252;-85
2022/03/14 04:53:48;;;;;;;;;7.50;4.00;;;;;8.62;66.05;102210.63;2451319;28;46604;-87
2022/03/14 04:54:59;;;;;;;;;9.75;7.00;;;;;8.60;65.85;102207.16;2452143;28;44581;-87
2022/03/14 04:56:09;;;;;;;;;8.00;6.50;;;;;8.61;65.45;102211.53;2451928;28;45292;-87
2022/03/14 04:57:19;;;;;;;;;6.25;5.00;;;;;8.59;65.79;102208.91;2452297;27;45230;-87
2022/03/14 04:58:30;;;;;;;;;5.00;5.00;;;;;8.59;65.32;102208.03;2450849;28;47644;-87
2022/03/14 04:59:40;;;;;;;;;8.00;6.25;;;;;8.57;65.25;102204.50;2451624;28;44732;-87
2022/03/14 05:00:51;;;;;;;;;6.00;6.00;;;;;8.59;65.48;102208.03;2451902;27;45345;-87
2022/03/14 05:02:01;;;;;;;;;6.00;5.00;;;;;8.59;65.33;102218.53;2451431;28;45426;-88
2022/03/14 05:03:12;;;;;;;;;9.00;7.00;;;;;8.57;65.65;102215.00;2451353;28;45449;-88
2022/03/14 05:04:22;;;;;;;;;8.50;6.75;;;;;8.56;65.16;102219.38;2451752;28;45160;-87
2022/03/14 05:05:33;;;;;;;;;7.50;7.00;;;;;8.55;65.45;102218.47;2451725;28;45444;-87
2022/03/14 05:06:44;;;;;;;;;5.00;5.00;;;;;8.54;64.89;102214.09;2451783;27;45222;-87
2022/03/14 05:07:55;;;;;;;;;5.00;5.00;;;;;8.54;65.48;102218.50;2451883;28;46314;-86
2022/03/14 05:09:06;;;;;;;;;3.00;3.00;;;;;8.52;65.53;102217.63;2452003;27;45236;-87
2022/03/14 05:10:16;;;;;;;;;11.00;6.25;;;;;8.52;65.01;102221.09;2452545;27;45324;-87
2022/03/14 05:11:27;;;;;;;;;6.50;6.00;;;;;8.51;65.24;102223.72;2453533;27;45278;-87
2022/03/14 05:12:38;;;;;;;;;8.75;7.50;;;;;8.49;65.09;102217.63;2450763;28;46820;-87
2022/03/14 05:13:48;;;;;;;;;7.50;7.00;;;;;8.47;65.47;102217.59;2451271;28;45446;-87
2022/03/14 05:14:58;;;;;;;;;8.50;7.50;;;;;8.47;65.09;102220.22;2451778;28;46375;-87
2022/03/14 05:16:09;;;;;;;;;8.50;7.50;;;;;8.44;65.01;102226.31;2451049;28;45439;-92
2022/03/14 05:17:19;;;;;;;;;5.75;5.75;;;;;8.44;65.36;102228.94;2451816;28;45186;-93
2022/03/14 05:18:29;;;;;;;;;9.00;6.00;;;;;8.42;65.06;102232.47;2451346;28;44654;-86
2022/03/14 05:19:40;;;;;;;;;6.50;5.75;;;;;8.40;65.41;102228.94;2450754;28;46966;-86
2022/03/14 05:20:50;;;;;;;;;11.00;7.75;;;;;8.39;65.14;102233.34;2451492;28;44672;-86
2022/03/14 05:22:01;;;;;;;;;9.00;6.00;;;;;8.40;65.05;102242.06;2451120;28;47016;-87
2022/03/14 05:23:11;;;;;;;;;8.50;7.00;;;;;8.37;65.23;102234.22;2451130;28;44614;-85
2022/03/14 05:24:21;;;;;;;;;8.00;5.00;;;;;8.34;65.04;102235.09;2450248;28;45923;-85
2022/03/14 05:25:32;;;;;;;;;6.00;6.00;;;;;8.35;65.48;102235.94;2451519;28;45328;-90
2022/03/14 05:26:43;;;;;;;;;5.00;4.75;;;;;8.33;65.21;102242.06;2451068;28;47335;-89
2022/03/14 05:27:53;;;;;;;;;8.00;7.25;;;;;8.33;65.25;102244.69;2443824;28;45418;-87
2022/03/14 05:29:05;;;;;;;;;6.00;6.00;;;;;8.33;65.44;102244.69;2451241;28;46200;-86
2022/03/14 05:30:15;;;;;;;;;7.00;5.75;;;;;8.32;65.30;102242.06;2451864;27;45167;-89
2022/03/14 05:31:25;;;;;;;;;7.00;5.00;;;;;8.31;65.02;102243.81;2451567;28;46449;-87